Time,TemperatureF,DewpointF,PressureIn,WindDirection,WindDirectionDegrees,WindSpeedMPH,WindSpeedGustMPH,Humidity,HourlyPrecipIn,Conditions,Clouds,dailyrainin,SoftwareType,DateUTC
2013-04-06 00:07:00,45.1,39.0,29.90,NNE,22,0.0,-999.0,79,-99.99,,,0.00,Acu-Link.com,2013-04-06 04:07:00,
2013-04-06 00:22:00,44.8,39.0,29.91,NE,45,0.0,-999.0,80,-99.99,,,0.00,Acu-Link.com,2013-04-06 04:22:00,
2013-04-06 00:38:00,43.9,38.8,29.91,NE,45,0.0,-999.0,82,-99.99,,,0.00,Acu-Link.com,2013-04-06 04:38:00,
2013-04-06 00:53:00,43.2,38.1,29.91,NE,45,0.0,-999.0,82,-99.99,,,0.00,Acu-Link.com,2013-04-06 04:53:00,
2013-04-06 01:08:00,42.4,38.2,29.91,West,270,0.0,-999.0,85,-99.99,,,0.00,Acu-Link.com,2013-04-06 05:08:00,
2013-04-06 01:23:00,42.3,38.1,29.91,SW,225,0.0,-999.0,85,-99.99,,,0.00,Acu-Link.com,2013-04-06 05:23:00,
2013-04-06 02:39:00,40.3,37.3,29.91,NNE,22,0.0,-999.0,89,-99.99,,,0.00,Acu-Link.com,2013-04-06 06:39:00,
2013-04-06 03:10:00,39.9,36.6,29.92,SE,135,0.0,-999.0,88,-99.99,,,0.00,Acu-Link.com,2013-04-06 07:10:00,
2013-04-06 03:25:00,39.4,36.1,29.91,North,0,0.0,-999.0,88,-99.99,,,0.00,Acu-Link.com,2013-04-06 07:25:00,
2013-04-06 03:40:00,39.2,36.2,29.91,NNE,22,0.0,-999.0,89,-99.99,,,0.00,Acu-Link.com,2013-04-06 07:40:00,
2013-04-06 03:55:00,38.8,36.4,29.91,West,270,0.0,-999.0,91,-99.99,,,0.00,Acu-Link.com,2013-04-06 07:55:00,
2013-04-06 04:11:00,38.7,36.6,29.92,NE,45,0.0,-999.0,92,-99.99,,,0.00,Acu-Link.com,2013-04-06 08:11:00,
2013-04-06 04:26:00,38.5,36.1,29.91,NNE,22,0.0,-999.0,91,-99.99,,,0.00,Acu-Link.com,2013-04-06 08:26:00,
2013-04-06 04:41:00,38.3,36.5,29.92,SW,225,0.0,-999.0,93,-99.99,,,0.00,Acu-Link.com,2013-04-06 08:41:00,
2013-04-06 04:57:00,37.8,36.2,29.92,SE,135,0.0,-999.0,94,-99.99,,,0.00,Acu-Link.com,2013-04-06 08:57:00,
2013-04-06 05:12:00,37.4,35.6,29.91,North,0,0.0,-999.0,93,-99.99,,,0.00,Acu-Link.com,2013-04-06 09:12:00,
2013-04-06 05:27:00,37.2,35.6,29.92,SE,135,0.0,-999.0,94,-99.99,,,0.00,Acu-Link.com,2013-04-06 09:27:00,
2013-04-06 05:42:00,36.5,35.2,29.94,NE,45,1.7,-999.0,95,-99.99,,,0.00,Acu-Link.com,2013-04-06 09:42:00,
2013-04-06 05:57:00,36.3,34.7,29.94,North,0,0.0,-999.0,94,-99.99,,,0.00,Acu-Link.com,2013-04-06 09:57:00,
2013-04-06 06:12:00,36.1,35.1,29.95,NE,45,0.0,-999.0,96,-99.99,,,0.00,Acu-Link.com,2013-04-06 10:12:00,
2013-04-06 06:27:00,36.0,34.4,29.95,SW,225,0.0,-999.0,94,-99.99,,,0.00,Acu-Link.com,2013-04-06 10:27:00,
2013-04-06 06:43:00,36.0,35.0,29.96,ENE,67,0.0,-999.0,96,-99.99,,,0.00,Acu-Link.com,2013-04-06 10:43:00,
2013-04-06 06:58:00,35.2,34.4,29.97,NNE,22,1.7,-999.0,97,-99.99,,,0.00,Acu-Link.com,2013-04-06 10:58:00,
2013-04-06 07:13:00,35.4,34.4,29.97,South,180,0.0,-999.0,96,-99.99,,,0.00,Acu-Link.com,2013-04-06 11:13:00,
2013-04-06 07:28:00,35.2,34.4,29.98,North,0,0.0,-999.0,97,-99.99,,,0.00,Acu-Link.com,2013-04-06 11:28:00,
2013-04-06 07:59:00,35.4,34.6,30.00,NE,45,0.0,-999.0,97,-99.99,,,0.00,Acu-Link.com,2013-04-06 11:59:00,
2013-04-06 08:14:00,35.8,35.3,30.01,NE,45,0.0,-999.0,98,-99.99,,,0.00,Acu-Link.com,2013-04-06 12:14:00,
2013-04-06 08:29:00,37.9,36.9,30.01,ENE,67,0.0,-999.0,96,-99.99,,,0.00,Acu-Link.com,2013-04-06 12:29:00,
2013-04-06 08:44:00,40.5,38.9,30.02,East,90,0.0,-999.0,94,-99.99,,,0.00,Acu-Link.com,2013-04-06 12:44:00,
2013-04-06 08:59:00,41.9,39.7,30.02,ENE,67,0.0,-999.0,92,-99.99,,,0.00,Acu-Link.com,2013-04-06 12:59:00,
2013-04-06 09:15:00,44.8,41.5,30.02,ENE,67,0.0,-999.0,88,-99.99,,,0.00,Acu-Link.com,2013-04-06 13:15:00,
2013-04-06 09:30:00,51.6,44.3,30.02,NW,315,0.0,-999.0,76,-99.99,,,0.00,Acu-Link.com,2013-04-06 13:30:00,
2013-04-06 09:45:00,56.1,45.3,30.02,South,180,0.0,-999.0,67,-99.99,,,0.00,Acu-Link.com,2013-04-06 13:45:00,
2013-04-06 10:00:00,58.1,45.6,30.02,WNW,292,0.0,-999.0,63,-99.99,,,0.00,Acu-Link.com,2013-04-06 14:00:00,
2013-04-06 10:15:00,58.5,46.8,30.02,SW,225,0.0,-999.0,65,-99.99,,,0.00,Acu-Link.com,2013-04-06 14:15:00,
2013-04-06 11:01:00,64.2,44.1,30.03,North,0,2.2,-999.0,48,-99.99,,,0.00,Acu-Link.com,2013-04-06 15:01:00,
2013-04-06 11:16:00,64.0,41.6,30.03,South,180,2.7,-999.0,44,-99.99,,,0.00,Acu-Link.com,2013-04-06 15:16:00,
2013-04-06 11:31:00,64.0,37.9,30.02,SW,225,2.2,-999.0,38,-99.99,,,0.00,Acu-Link.com,2013-04-06 15:31:00,
2013-04-06 11:47:00,67.5,39.6,30.03,WSW,247,1.7,-999.0,36,-99.99,,,0.00,Acu-Link.com,2013-04-06 15:47:00,
2013-04-06 12:02:00,65.7,39.4,30.03,NNE,22,1.1,-999.0,38,-99.99,,,0.00,Acu-Link.com,2013-04-06 16:02:00,
2013-04-06 12:17:00,66.2,37.0,30.02,SW,225,3.2,-999.0,34,-99.99,,,0.00,Acu-Link.com,2013-04-06 16:17:00,
2013-04-06 12:32:00,67.8,36.9,30.02,East,90,3.2,-999.0,32,-99.99,,,0.00,Acu-Link.com,2013-04-06 16:32:00,
2013-04-06 12:48:00,68.9,37.8,30.02,NE,45,3.7,-999.0,32,-99.99,,,0.00,Acu-Link.com,2013-04-06 16:48:00,
2013-04-06 13:03:00,69.6,38.4,30.01,South,180,1.1,-999.0,32,-99.99,,,0.00,Acu-Link.com,2013-04-06 17:03:00,
2013-04-06 13:18:00,69.1,38.8,30.01,NE,45,2.2,-999.0,33,-99.99,,,0.00,Acu-Link.com,2013-04-06 17:18:00,
2013-04-06 13:33:00,68.7,39.2,30.01,South,180,1.1,-999.0,34,-99.99,,,0.00,Acu-Link.com,2013-04-06 17:33:00,
2013-04-06 14:19:00,71.2,39.8,29.98,WNW,292,2.7,-999.0,32,-99.99,,,0.00,Acu-Link.com,2013-04-06 18:19:00,
2013-04-06 14:49:00,71.4,39.2,29.97,East,90,2.7,-999.0,31,-99.99,,,0.00,Acu-Link.com,2013-04-06 18:49:00,
2013-04-06 15:04:00,72.5,36.6,29.97,NE,45,4.7,-999.0,27,-99.99,,,0.00,Acu-Link.com,2013-04-06 19:04:00,
2013-04-06 15:20:00,69.3,35.7,29.96,ENE,67,2.2,-999.0,29,-99.99,,,0.00,Acu-Link.com,2013-04-06 19:20:00,
2013-04-06 15:35:00,72.5,37.5,29.95,SW,225,1.1,-999.0,28,-99.99,,,0.00,Acu-Link.com,2013-04-06 19:35:00,
2013-04-06 15:50:00,72.5,36.6,29.95,WNW,292,2.2,-999.0,27,-99.99,,,0.00,Acu-Link.com,2013-04-06 19:50:00,
2013-04-06 16:05:00,73.4,36.4,29.94,NNE,22,1.7,-999.0,26,-99.99,,,0.00,Acu-Link.com,2013-04-06 20:05:00,
2013-04-06 16:20:00,71.4,37.5,29.93,SE,135,1.7,-999.0,29,-99.99,,,0.00,Acu-Link.com,2013-04-06 20:20:00,
2013-04-06 16:36:00,70.9,41.1,29.93,South,180,1.7,-999.0,34,-99.99,,,0.00,Acu-Link.com,2013-04-06 20:36:00,
2013-04-06 16:51:00,68.9,37.8,29.92,NE,45,4.7,-999.0,32,-99.99,,,0.00,Acu-Link.com,2013-04-06 20:51:00,
2013-04-06 17:06:00,69.8,39.4,29.92,SW,225,1.1,-999.0,33,-99.99,,,0.00,Acu-Link.com,2013-04-06 21:06:00,
2013-04-06 17:37:00,69.3,38.2,29.93,East,90,0.0,-999.0,32,-99.99,,,0.00,Acu-Link.com,2013-04-06 21:37:00,
2013-04-06 17:52:00,70.2,39.0,29.93,NNE,22,2.2,-999.0,32,-99.99,,,0.00,Acu-Link.com,2013-04-06 21:52:00,
2013-04-06 18:07:00,70.3,38.2,29.94,ESE,112,1.7,-999.0,31,-99.99,,,0.00,Acu-Link.com,2013-04-06 22:07:00,
2013-04-06 18:22:00,69.4,39.0,29.94,ESE,112,2.2,-999.0,33,-99.99,,,0.00,Acu-Link.com,2013-04-06 22:22:00,
2013-04-06 18:37:00,69.6,39.2,29.93,South,180,1.7,-999.0,33,-99.99,,,0.00,Acu-Link.com,2013-04-06 22:37:00,
2013-04-06 18:53:00,68.7,38.4,29.94,SW,225,1.1,-999.0,33,-99.99,,,0.00,Acu-Link.com,2013-04-06 22:53:00,
2013-04-06 19:08:00,67.8,39.9,29.94,SSW,202,0.0,-999.0,36,-99.99,,,0.00,Acu-Link.com,2013-04-06 23:08:00,
2013-04-06 19:23:00,66.4,40.0,29.94,NNE,22,2.2,-999.0,38,-99.99,,,0.00,Acu-Link.com,2013-04-06 23:23:00,
2013-04-06 19:38:00,64.6,40.4,29.94,NE,45,1.7,-999.0,41,-99.99,,,0.00,Acu-Link.com,2013-04-06 23:38:00,
2013-04-06 20:09:00,59.7,43.0,29.95,NE,45,2.2,-999.0,54,-99.99,,,0.00,Acu-Link.com,2013-04-07 00:09:00,
2013-04-06 20:24:00,57.6,42.0,29.94,NE,45,2.2,-999.0,56,-99.99,,,0.00,Acu-Link.com,2013-04-07 00:24:00,
2013-04-06 20:39:00,56.5,41.0,29.95,NNE,22,1.7,-999.0,56,-99.99,,,0.00,Acu-Link.com,2013-04-07 00:39:00,
2013-04-06 20:54:00,55.6,41.1,29.95,NE,45,0.0,-999.0,58,-99.99,,,0.00,Acu-Link.com,2013-04-07 00:54:00,
2013-04-06 21:09:00,54.5,41.3,29.95,NE,45,0.0,-999.0,61,-99.99,,,0.00,Acu-Link.com,2013-04-07 01:09:00,
2013-04-06 21:25:00,53.4,40.3,29.96,ENE,67,0.0,-999.0,61,-99.99,,,0.00,Acu-Link.com,2013-04-07 01:25:00,
2013-04-06 21:55:00,52.2,40.8,29.96,NE,45,0.0,-999.0,65,-99.99,,,0.00,Acu-Link.com,2013-04-07 01:55:00,
2013-04-06 22:25:00,50.9,40.7,29.98,NE,45,0.0,-999.0,68,-99.99,,,0.00,Acu-Link.com,2013-04-07 02:25:00,
2013-04-06 22:41:00,50.4,40.6,29.98,WNW,292,0.0,-999.0,69,-99.99,,,0.00,Acu-Link.com,2013-04-07 02:41:00,
2013-04-06 22:56:00,49.6,40.2,29.98,NNE,22,0.0,-999.0,70,-99.99,,,0.00,Acu-Link.com,2013-04-07 02:56:00,
2013-04-06 23:26:00,48.2,39.6,29.99,ENE,67,0.0,-999.0,72,-99.99,,,0.00,Acu-Link.com,2013-04-07 03:26:00,
2013-04-06 23:57:00,47.3,39.4,29.99,SSE,157,0.0,-999.0,74,-99.99,,,0.00,Acu-Link.com,2013-04-07 03:57:00,